sensor_id;sensor_type;location;lat;lon;timestamp;pressure;altitude;pressure_sealevel;temperature;humidity
65546;BME280;52177;55.968;37.498;2023-07-31T00:00:11;98938.38;;;14.22;77.26
65546;BME280;52177;55.968;37.498;2023-07-31T00:00:41;98943.75;;;14.22;77.14
65546;BME280;52177;55.968;37.498;2023-07-31T00:01:12;98938.59;;;14.20;77.25
65546;BME280;52177;55.968;37.498;2023-07-31T00:01:42;98942.94;;;14.21;77.36
65546;BME280;52177;55.968;37.498;2023-07-31T00:02:13;98938.59;;;14.20;77.36
65546;BME280;52177;55.968;37.498;2023-07-31T00:02:43;98939.66;;;14.19;77.25
65546;BME280;52177;55.968;37.498;2023-07-31T00:03:13;98943.97;;;14.20;77.36
65546;BME280;52177;55.968;37.498;2023-07-31T00:03:45;98943.34;;;14.18;77.49
65546;BME280;52177;55.968;37.498;2023-07-31T00:04:16;98942.53;;;14.18;77.49
65546;BME280;52177;55.968;37.498;2023-07-31T00:04:46;98947.09;;;14.17;77.64
65546;BME280;52177;55.968;37.498;2023-07-31T00:05:16;98942.53;;;14.18;77.61
65546;BME280;52177;55.968;37.498;2023-07-31T00:05:47;98943.59;;;14.17;77.62
65546;BME280;52177;55.968;37.498;2023-07-31T00:06:17;98940.91;;;14.17;77.65
65546;BME280;52177;55.968;37.498;2023-07-31T00:06:47;98941.72;;;14.17;77.83
65546;BME280;52177;55.968;37.498;2023-07-31T00:07:18;98943.34;;;14.18;77.77
65546;BME280;52177;55.968;37.498;2023-07-31T00:07:48;98946.84;;;14.19;77.76
65546;BME280;52177;55.968;37.498;2023-07-31T00:08:19;98943.97;;;14.20;77.75
65546;BME280;52177;55.968;37.498;2023-07-31T00:08:49;98945.81;;;14.20;77.67
65546;BME280;52177;55.968;37.498;2023-07-31T00:09:20;98943.16;;;14.20;77.54
65546;BME280;52177;55.968;37.498;2023-07-31T00:09:50;98948.72;;;14.18;77.67
65546;BME280;52177;55.968;37.498;2023-07-31T00:10:20;98941.72;;;14.17;77.64
65546;BME280;52177;55.968;37.498;2023-07-31T00:10:52;98947.91;;;14.18;77.65
65546;BME280;52177;55.968;37.498;2023-07-31T00:11:22;98938.22;;;14.17;77.69
65546;BME280;52177;55.968;37.498;2023-07-31T00:11:53;98953.47;;;14.16;77.65
65546;BME280;52177;55.968;37.498;2023-07-31T00:12:23;98943.59;;;14.17;77.72
65546;BME280;52177;55.968;37.498;2023-07-31T00:12:54;98944.63;;;14.15;77.86
65546;BME280;52177;55.968;37.498;2023-07-31T00:13:24;98940.06;;;14.16;77.65
65546;BME280;52177;55.968;37.498;2023-07-31T00:13:54;98943.59;;;14.17;77.68
65546;BME280;52177;55.968;37.498;2023-07-31T00:14:25;98941.72;;;14.17;77.63
65546;BME280;52177;55.968;37.498;2023-07-31T00:14:55;98939.25;;;14.15;77.65
65546;BME280;52177;55.968;37.498;2023-07-31T00:15:26;98938.44;;;14.15;77.52
65546;BME280;52177;55.968;37.498;2023-07-31T00:15:56;98943.59;;;14.17;77.67
65546;BME280;52177;55.968;37.498;2023-07-31T00:16:27;98941.13;;;14.15;77.58
65546;BME280;52177;55.968;37.498;2023-07-31T00:16:57;98947.28;;;14.15;77.59
65546;BME280;52177;55.968;37.498;2023-07-31T00:17:28;98943.81;;;14.15;77.55
65546;BME280;52177;55.968;37.498;2023-07-31T00:17:58;98935.16;;;14.13;77.63
65546;BME280;52177;55.968;37.498;2023-07-31T00:18:28;98945.88;;;14.13;77.59
65546;BME280;52177;55.968;37.498;2023-07-31T00:18:59;98938.88;;;14.12;77.69
65546;BME280;52177;55.968;37.498;2023-07-31T00:19:29;98936.22;;;14.12;77.69
65546;BME280;52177;55.968;37.498;2023-07-31T00:20:00;98941.56;;;14.12;77.65
65546;BME280;52177;55.968;37.498;2023-07-31T00:20:30;98939.91;;;14.11;77.80
65546;BME280;52177;55.968;37.498;2023-07-31T00:21:00;98938.03;;;14.11;77.73
65546;BME280;52177;55.968;37.498;2023-07-31T00:21:31;98936.22;;;14.12;77.78
65546;BME280;52177;55.968;37.498;2023-07-31T00:22:01;98939.69;;;14.12;77.78
65546;BME280;52177;55.968;37.498;2023-07-31T00:22:32;98938.88;;;14.12;77.85
65546;BME280;52177;55.968;37.498;2023-07-31T00:23:02;98933.53;;;14.12;77.92
65546;BME280;52177;55.968;37.498;2023-07-31T00:23:32;98931.41;;;14.14;78.04
65546;BME280;52177;55.968;37.498;2023-07-31T00:24:03;98938.44;;;14.15;78.13
65546;BME280;52177;55.968;37.498;2023-07-31T00:24:33;98940.66;;;14.18;77.97
65546;BME280;52177;55.968;37.498;2023-07-31T00:25:04;98936.97;;;14.19;78.07
65546;BME280;52177;55.968;37.498;2023-07-31T00:25:36;98934.06;;;14.21;78.18
65546;BME280;52177;55.968;37.498;2023-07-31T00:26:06;98942.94;;;14.21;78.02
65546;BME280;52177;55.968;37.498;2023-07-31T00:26:37;98941.06;;;14.22;78.00
65546;BME280;52177;55.968;37.498;2023-07-31T00:27:07;98937.13;;;14.24;78.02
65546;BME280;52177;55.968;37.498;2023-07-31T00:27:38;98937.13;;;14.24;77.90
65546;BME280;52177;55.968;37.498;2023-07-31T00:28:08;98941.44;;;14.25;77.80
65546;BME280;52177;55.968;37.498;2023-07-31T00:28:38;98944.13;;;14.25;77.91
65546;BME280;52177;55.968;37.498;2023-07-31T00:29:09;98935.88;;;14.27;77.98
65546;BME280;52177;55.968;37.498;2023-07-31T00:29:39;98934.00;;;14.27;77.79
65546;BME280;52177;55.968;37.498;2023-07-31T00:30:10;98936.69;;;14.27;77.71
65546;BME280;52177;55.968;37.498;2023-07-31T00:30:41;98936.06;;;14.25;77.39
65546;BME280;52177;55.968;37.498;2023-07-31T00:31:11;98937.94;;;14.25;77.38
65546;BME280;52177;55.968;37.498;2023-07-31T00:31:42;98933.63;;;14.24;77.39
65546;BME280;52177;55.968;37.498;2023-07-31T00:32:12;98933.84;;;14.22;77.50
65546;BME280;52177;55.968;37.498;2023-07-31T00:32:42;98933.84;;;14.22;77.46
65546;BME280;52177;55.968;37.498;2023-07-31T00:33:13;98935.91;;;14.20;77.44
65546;BME280;52177;55.968;37.498;2023-07-31T00:33:43;98936.97;;;14.19;77.52
65546;BME280;52177;55.968;37.498;2023-07-31T00:34:14;98932.63;;;14.18;77.55
65546;BME280;52177;55.968;37.498;2023-07-31T00:34:44;98936.13;;;14.19;77.72
65546;BME280;52177;55.968;37.498;2023-07-31T00:35:14;98932.63;;;14.18;77.79
65546;BME280;52177;55.968;37.498;2023-07-31T00:35:45;98931.81;;;14.18;77.81
65546;BME280;52177;55.968;37.498;2023-07-31T00:36:15;98931.81;;;14.18;77.90
65546;BME280;52177;55.968;37.498;2023-07-31T00:36:46;98935.56;;;14.17;77.94
65546;BME280;52177;55.968;37.498;2023-07-31T00:37:16;98933.88;;;14.15;78.04
65546;BME280;52177;55.968;37.498;2023-07-31T00:37:46;98934.72;;;14.16;77.96
65546;BME280;52177;55.968;37.498;2023-07-31T00:38:17;98932.88;;;14.17;77.92
65546;BME280;52177;55.968;37.498;2023-07-31T00:38:47;98933.69;;;14.17;77.85
65546;BME280;52177;55.968;37.498;2023-07-31T00:39:18;98929.34;;;14.16;77.94
65546;BME280;52177;55.968;37.498;2023-07-31T00:39:48;98933.69;;;14.17;77.99
65546;BME280;52177;55.968;37.498;2023-07-31T00:40:19;98938.22;;;14.17;78.05
65546;BME280;52177;55.968;37.498;2023-07-31T00:40:49;98934.28;;;14.19;78.01
65546;BME280;52177;55.968;37.498;2023-07-31T00:41:20;98934.28;;;14.19;78.16
65546;BME280;52177;55.968;37.498;2023-07-31T00:41:50;98925.41;;;14.19;78.04
65546;BME280;52177;55.968;37.498;2023-07-31T00:42:20;98934.28;;;14.19;77.88
65546;BME280;52177;55.968;37.498;2023-07-31T00:42:51;98934.28;;;14.19;77.85
65546;BME280;52177;55.968;37.498;2023-07-31T00:43:21;98933.44;;;14.19;78.08
65546;BME280;52177;55.968;37.498;2023-07-31T00:43:52;98934.28;;;14.19;78.08
65546;BME280;52177;55.968;37.498;2023-07-31T00:44:22;98927.06;;;14.20;78.02
65546;BME280;52177;55.968;37.498;2023-07-31T00:44:52;98927.06;;;14.20;77.83
65546;BME280;52177;55.968;37.498;2023-07-31T00:45:23;98929.75;;;14.20;78.00
65546;BME280;52177;55.968;37.498;2023-07-31T00:45:54;98933.25;;;14.20;78.09
65546;BME280;52177;55.968;37.498;2023-07-31T00:46:24;98934.91;;;14.21;78.06
65546;BME280;52177;55.968;37.498;2023-07-31T00:46:55;98932.22;;;14.21;77.82
65546;BME280;52177;55.968;37.498;2023-07-31T00:47:26;98928.09;;;14.19;77.83
65546;BME280;52177;55.968;37.498;2023-07-31T00:47:56;98934.28;;;14.19;77.74
65546;BME280;52177;55.968;37.498;2023-07-31T00:48:28;98931.81;;;14.18;77.76
65546;BME280;52177;55.968;37.498;2023-07-31T00:48:59;98928.31;;;14.17;77.91
65546;BME280;52177;55.968;37.498;2023-07-31T00:49:29;98934.72;;;14.16;77.85
65546;BME280;52177;55.968;37.498;2023-07-31T00:50:00;98933.06;;;14.15;77.76
65546;BME280;52177;55.968;37.498;2023-07-31T00:50:30;98936.78;;;14.14;77.87
65546;BME280;52177;55.968;37.498;2023-07-31T00:51:01;98933.53;;;14.12;77.94
65546;BME280;52177;55.968;37.498;2023-07-31T00:51:31;98931.88;;;14.11;77.96
65546;BME280;52177;55.968;37.498;2023-07-31T00:52:01;98935.59;;;14.10;77.88
65546;BME280;52177;55.968;37.498;2023-07-31T00:52:32;98932.09;;;14.09;78.03
65546;BME280;52177;55.968;37.498;2023-07-31T00:53:03;98933.13;;;14.08;78.02
65546;BME280;52177;55.968;37.498;2023-07-31T00:53:34;98932.91;;;14.10;78.06
65546;BME280;52177;55.968;37.498;2023-07-31T00:54:06;98926.94;;;14.08;77.89
65546;BME280;52177;55.968;37.498;2023-07-31T00:54:36;98926.13;;;14.07;78.01
65546;BME280;52177;55.968;37.498;2023-07-31T00:55:07;98926.34;;;14.06;78.07
65546;BME280;52177;55.968;37.498;2023-07-31T00:55:38;98930.06;;;14.05;78.00
65546;BME280;52177;55.968;37.498;2023-07-31T00:56:09;98923.06;;;14.04;78.21
65546;BME280;52177;55.968;37.498;2023-07-31T00:56:41;98927.59;;;14.03;78.17
65546;BME280;52177;55.968;37.498;2023-07-31T00:57:14;98926.78;;;14.03;78.22
65546;BME280;52177;55.968;37.498;2023-07-31T00:57:45;98925.13;;;14.02;78.24
65546;BME280;52177;55.968;37.498;2023-07-31T00:58:15;98930.50;;;14.02;78.20
65546;BME280;52177;55.968;37.498;2023-07-31T00:58:46;98928.88;;;14.01;78.32
65546;BME280;52177;55.968;37.498;2023-07-31T00:59:16;98928.88;;;14.01;78.23
65546;BME280;52177;55.968;37.498;2023-07-31T00:59:48;98928.88;;;14.01;78.29
65546;BME280;52177;55.968;37.498;2023-07-31T01:00:19;98933.41;;;14.00;78.30
65546;BME280;52177;55.968;37.498;2023-07-31T01:00:49;98929.88;;;14.00;78.18
65546;BME280;52177;55.968;37.498;2023-07-31T01:01:20;98928.06;;;14.00;78.43
65546;BME280;52177;55.968;37.498;2023-07-31T01:01:52;98932.56;;;14.00;78.39
65546;BME280;52177;55.968;37.498;2023-07-31T01:02:22;98927.22;;;14.00;78.48
65546;BME280;52177;55.968;37.498;2023-07-31T01:02:53;98928.88;;;14.01;78.45
65546;BME280;52177;55.968;37.498;2023-07-31T01:03:24;98927.81;;;14.02;78.64
65546;BME280;52177;55.968;37.498;2023-07-31T01:03:55;98931.31;;;14.02;78.49
65546;BME280;52177;55.968;37.498;2023-07-31T01:04:26;98932.97;;;14.03;78.52
65546;BME280;52177;55.968;37.498;2023-07-31T01:04:56;98931.31;;;14.02;78.73
65546;BME280;52177;55.968;37.498;2023-07-31T01:05:44;98931.09;;;14.04;78.68
65546;BME280;52177;55.968;37.498;2023-07-31T01:09:38;98933.53;;;14.12;78.46
65546;BME280;52177;55.968;37.498;2023-07-31T01:10:29;98928.97;;;14.12;78.34
65546;BME280;52177;55.968;37.498;2023-07-31T01:11:18;98930.84;;;14.12;78.46
65546;BME280;52177;55.968;37.498;2023-07-31T01:11:53;98934.34;;;14.12;78.34
65546;BME280;52177;55.968;37.498;2023-07-31T01:12:27;98930.00;;;14.11;78.44
65546;BME280;52177;55.968;37.498;2023-07-31T01:12:58;98930.59;;;14.13;78.25
65546;BME280;52177;55.968;37.498;2023-07-31T01:13:29;98927.13;;;14.13;78.14
65546;BME280;52177;55.968;37.498;2023-07-31T01:14:00;98927.13;;;14.13;78.02
65546;BME280;52177;55.968;37.498;2023-07-31T01:14:30;98927.13;;;14.13;78.10
65546;BME280;52177;55.968;37.498;2023-07-31T01:15:31;98932.47;;;14.13;78.27
65546;BME280;52177;55.968;37.498;2023-07-31T01:16:01;98936.56;;;14.15;78.30
65546;BME280;52177;55.968;37.498;2023-07-31T01:16:37;98934.94;;;14.14;78.14
65546;BME280;52177;55.968;37.498;2023-07-31T01:17:08;98934.94;;;14.14;78.27
65546;BME280;52177;55.968;37.498;2023-07-31T01:17:39;98934.72;;;14.16;78.08
65546;BME280;52177;55.968;37.498;2023-07-31T01:18:09;98932.88;;;14.17;78.17
65546;BME280;52177;55.968;37.498;2023-07-31T01:18:40;98938.00;;;14.18;78.11
65546;BME280;52177;55.968;37.498;2023-07-31T01:19:11;98934.50;;;14.18;78.08
65546;BME280;52177;55.968;37.498;2023-07-31T01:19:44;98933.44;;;14.19;78.00
65546;BME280;52177;55.968;37.498;2023-07-31T01:20:23;98931.59;;;14.19;78.13
65546;BME280;52177;55.968;37.498;2023-07-31T01:22:22;98940.66;;;14.18;78.07
65546;BME280;52177;55.968;37.498;2023-07-31T01:24:01;98941.13;;;14.15;78.05
65546;BME280;52177;55.968;37.498;2023-07-31T01:25:54;98942.81;;;14.09;78.09
65546;BME280;52177;55.968;37.498;2023-07-31T01:26:30;98937.06;;;14.06;78.20
65546;BME280;52177;55.968;37.498;2023-07-31T01:27:10;98934.59;;;14.04;78.26
65546;BME280;52177;55.968;37.498;2023-07-31T01:27:51;98931.09;;;14.04;78.39
65546;BME280;52177;55.968;37.498;2023-07-31T01:28:39;98930.50;;;14.02;78.25
65546;BME280;52177;55.968;37.498;2023-07-31T01:30:22;98926.84;;;13.96;78.45
65546;BME280;52177;55.968;37.498;2023-07-31T01:30:55;98929.50;;;13.96;78.62
65546;BME280;52177;55.968;37.498;2023-07-31T01:31:29;98933.00;;;13.97;78.54
65546;BME280;52177;55.968;37.498;2023-07-31T01:32:02;98932.41;;;13.94;78.48
65546;BME280;52177;55.968;37.498;2023-07-31T01:32:34;98935.09;;;13.94;78.49
65546;BME280;52177;55.968;37.498;2023-07-31T01:33:05;98928.91;;;13.94;78.50
65546;BME280;52177;55.968;37.498;2023-07-31T01:33:38;98929.97;;;13.93;78.59
65546;BME280;52177;55.968;37.498;2023-07-31T01:34:09;98934.47;;;13.92;78.63
65546;BME280;52177;55.968;37.498;2023-07-31T01:34:41;98929.34;;;13.91;78.66
65546;BME280;52177;55.968;37.498;2023-07-31T01:35:11;98938.00;;;13.93;78.67
65546;BME280;52177;55.968;37.498;2023-07-31T01:35:44;98938.81;;;13.93;78.75
65546;BME280;52177;55.968;37.498;2023-07-31T01:36:15;98939.63;;;13.94;78.87
65546;BME280;52177;55.968;37.498;2023-07-31T01:36:46;98934.25;;;13.94;78.99
65546;BME280;52177;55.968;37.498;2023-07-31T01:37:16;98935.09;;;13.94;79.04
65546;BME280;52177;55.968;37.498;2023-07-31T01:37:47;98936.75;;;13.96;78.97
65546;BME280;52177;55.968;37.498;2023-07-31T01:38:20;98934.63;;;13.98;78.78
65546;BME280;52177;55.968;37.498;2023-07-31T01:38:51;98940.00;;;13.98;79.02
65546;BME280;52177;55.968;37.498;2023-07-31T01:39:22;98936.28;;;13.99;78.91
65546;BME280;52177;55.968;37.498;2023-07-31T01:39:52;98938.16;;;13.98;79.08
65546;BME280;52177;55.968;37.498;2023-07-31T01:40:22;98937.91;;;14.00;78.94
65546;BME280;52177;55.968;37.498;2023-07-31T01:40:53;98943.88;;;14.02;78.96
65546;BME280;52177;55.968;37.498;2023-07-31T01:41:23;98936.91;;;14.01;79.02
65546;BME280;52177;55.968;37.498;2023-07-31T01:41:54;98940.41;;;14.01;78.93
65546;BME280;52177;55.968;37.498;2023-07-31T01:42:24;98942.25;;;14.01;78.62
65546;BME280;52177;55.968;37.498;2023-07-31T01:42:55;98932.56;;;14.00;78.56
65546;BME280;52177;55.968;37.498;2023-07-31T01:43:25;98936.28;;;13.99;78.60
65546;BME280;52177;55.968;37.498;2023-07-31T01:43:55;98938.38;;;13.97;78.51
65546;BME280;52177;55.968;37.498;2023-07-31T01:44:26;98941.25;;;13.95;78.62
65546;BME280;52177;55.968;37.498;2023-07-31T01:44:56;98938.00;;;13.93;78.65
65546;BME280;52177;55.968;37.498;2023-07-31T01:45:27;98933.88;;;13.90;78.69
65546;BME280;52177;55.968;37.498;2023-07-31T01:45:57;98935.72;;;13.90;78.71
65546;BME280;52177;55.968;37.498;2023-07-31T01:46:27;98937.59;;;13.89;78.57
65546;BME280;52177;55.968;37.498;2023-07-31T01:46:58;98942.94;;;13.89;78.54
65546;BME280;52177;55.968;37.498;2023-07-31T01:47:30;98942.13;;;13.89;78.67
65546;BME280;52177;55.968;37.498;2023-07-31T01:48:00;98936.78;;;13.89;78.76
65546;BME280;52177;55.968;37.498;2023-07-31T01:48:31;98940.28;;;13.89;78.80
65546;BME280;52177;55.968;37.498;2023-07-31T01:49:06;98932.25;;;13.89;79.01
65546;BME280;52177;55.968;37.498;2023-07-31T01:49:36;98943.78;;;13.90;78.92
65546;BME280;52177;55.968;37.498;2023-07-31T01:50:07;98936.53;;;13.90;78.90
65546;BME280;52177;55.968;37.498;2023-07-31T01:50:37;98940.88;;;13.91;78.95
65546;BME280;52177;55.968;37.498;2023-07-31T01:51:08;98941.69;;;13.92;79.00
65546;BME280;52177;55.968;37.498;2023-07-31T01:51:38;98933.44;;;13.93;79.00
65546;BME280;52177;55.968;37.498;2023-07-31T01:52:08;98938.56;;;13.95;78.97
65546;BME280;52177;55.968;37.498;2023-07-31T01:52:39;98935.91;;;13.95;78.89
65546;BME280;52177;55.968;37.498;2023-07-31T01:53:09;98938.38;;;13.97;78.83
65546;BME280;52177;55.968;37.498;2023-07-31T01:53:40;98936.50;;;13.97;78.67
65546;BME280;52177;55.968;37.498;2023-07-31T01:54:10;98939.19;;;13.97;78.61
65546;BME280;52177;55.968;37.498;2023-07-31T01:54:41;98938.97;;;13.99;78.66
65546;BME280;52177;55.968;37.498;2023-07-31T01:55:11;98938.78;;;14.00;78.93
65546;BME280;52177;55.968;37.498;2023-07-31T01:55:42;98942.25;;;14.01;78.92
65546;BME280;52177;55.968;37.498;2023-07-31T01:56:12;98939.59;;;14.01;78.96
65546;BME280;52177;55.968;37.498;2023-07-31T01:56:43;98935.84;;;14.02;78.71
65546;BME280;52177;55.968;37.498;2023-07-31T01:57:13;98936.66;;;14.02;78.82
65546;BME280;52177;55.968;37.498;2023-07-31T01:57:43;98941.00;;;14.03;78.78
65546;BME280;52177;55.968;37.498;2023-07-31T01:58:14;98939.94;;;14.04;78.73
65546;BME280;52177;55.968;37.498;2023-07-31T01:58:44;98937.28;;;14.04;78.57
65546;BME280;52177;55.968;37.498;2023-07-31T01:59:14;98931.91;;;14.04;78.46
65546;BME280;52177;55.968;37.498;2023-07-31T01:59:45;98932.97;;;14.03;78.50
65546;BME280;52177;55.968;37.498;2023-07-31T02:00:15;98941.22;;;14.02;78.47
65546;BME280;52177;55.968;37.498;2023-07-31T02:00:46;98935.84;;;14.02;78.53
65546;BME280;52177;55.968;37.498;2023-07-31T02:01:16;98938.53;;;14.02;78.51
65546;BME280;52177;55.968;37.498;2023-07-31T02:01:46;98935.03;;;14.01;78.57
65546;BME280;52177;55.968;37.498;2023-07-31T02:02:17;98937.91;;;14.00;78.52
65546;BME280;52177;55.968;37.498;2023-07-31T02:02:47;98943.28;;;14.00;78.51
65546;BME280;52177;55.968;37.498;2023-07-31T02:03:18;98940.00;;;13.98;78.49
65546;BME280;52177;55.968;37.498;2023-07-31T02:03:48;98935.69;;;13.97;78.38
65546;BME280;52177;55.968;37.498;2023-07-31T02:04:19;98940.22;;;13.96;78.48
65546;BME280;52177;55.968;37.498;2023-07-31T02:04:49;98935.91;;;13.95;78.48
65546;BME280;52177;55.968;37.498;2023-07-31T02:05:19;98936.94;;;13.94;78.35
65546;BME280;52177;55.968;37.498;2023-07-31T02:05:50;98938.00;;;13.93;78.52
65546;BME280;52177;55.968;37.498;2023-07-31T02:06:20;98934.72;;;13.91;78.50
65546;BME280;52177;55.968;37.498;2023-07-31T02:06:52;98939.22;;;13.90;78.74
65546;BME280;52177;55.968;37.498;2023-07-31T02:07:23;98938.41;;;13.90;78.69
65546;BME280;52177;55.968;37.498;2023-07-31T02:07:53;98936.78;;;13.89;78.69
65546;BME280;52177;55.968;37.498;2023-07-31T02:08:24;98941.31;;;13.88;78.65
65546;BME280;52177;55.968;37.498;2023-07-31T02:08:54;98941.31;;;13.88;78.63
65546;BME280;52177;55.968;37.498;2023-07-31T02:09:24;98944.81;;;13.89;78.80
65546;BME280;52177;55.968;37.498;2023-07-31T02:09:55;98937.59;;;13.89;78.77
65546;BME280;52177;55.968;37.498;2023-07-31T02:10:25;98943.78;;;13.90;78.69
65546;BME280;52177;55.968;37.498;2023-07-31T02:10:56;98940.28;;;13.89;78.73
65546;BME280;52177;55.968;37.498;2023-07-31T02:11:26;98937.59;;;13.89;78.77
65546;BME280;52177;55.968;37.498;2023-07-31T02:11:56;98944.81;;;13.89;78.84
65546;BME280;52177;55.968;37.498;2023-07-31T02:12:27;98941.31;;;13.88;78.79
65546;BME280;52177;55.968;37.498;2023-07-31T02:13:00;98942.13;;;13.89;78.78
65546;BME280;52177;55.968;37.498;2023-07-31T02:13:30;98944.00;;;13.88;78.74
65546;BME280;52177;55.968;37.498;2023-07-31T02:14:01;98937.81;;;13.88;78.77
65546;BME280;52177;55.968;37.498;2023-07-31T02:14:31;98943.16;;;13.88;78.66
65546;BME280;52177;55.968;37.498;2023-07-31T02:15:02;98941.31;;;13.88;78.67
65546;BME280;52177;55.968;37.498;2023-07-31T02:15:32;98945.84;;;13.88;78.77
65546;BME280;52177;55.968;37.498;2023-07-31T02:16:03;98947.50;;;13.89;78.64
65546;BME280;52177;55.968;37.498;2023-07-31T02:16:33;98944.00;;;13.88;78.76
65546;BME280;52177;55.968;37.498;2023-07-31T02:17:04;98949.38;;;13.88;78.75
65546;BME280;52177;55.968;37.498;2023-07-31T02:17:35;98938.84;;;13.87;78.88
65546;BME280;52177;55.968;37.498;2023-07-31T02:18:05;98947.91;;;13.86;78.98
65546;BME280;52177;55.968;37.498;2023-07-31T02:18:35;98939.06;;;13.85;79.00
65546;BME280;52177;55.968;37.498;2023-07-31T02:19:06;98945.47;;;13.84;79.10
65546;BME280;52177;55.968;37.498;2023-07-31T02:19:37;98943.81;;;13.83;79.11
65546;BME280;52177;55.968;37.498;2023-07-31T02:20:08;98947.34;;;13.84;79.13
65546;BME280;52177;55.968;37.498;2023-07-31T02:20:38;98945.47;;;13.84;79.03
65546;BME280;52177;55.968;37.498;2023-07-31T02:21:09;98950.81;;;13.84;79.20
65546;BME280;52177;55.968;37.498;2023-07-31T02:21:39;98945.47;;;13.84;79.29
65546;BME280;52177;55.968;37.498;2023-07-31T02:22:09;98948.16;;;13.84;79.15
65546;BME280;52177;55.968;37.498;2023-07-31T02:22:40;98949.56;;;13.87;78.92
65546;BME280;52177;55.968;37.498;2023-07-31T02:23:11;98944.22;;;13.87;78.96
65546;BME280;52177;55.968;37.498;2023-07-31T02:23:42;98943.41;;;13.86;78.98
65546;BME280;52177;55.968;37.498;2023-07-31T02:24:12;98943.16;;;13.88;78.88
65546;BME280;52177;55.968;37.498;2023-07-31T02:24:42;98949.38;;;13.88;78.90
65546;BME280;52177;55.968;37.498;2023-07-31T02:25:13;98942.34;;;13.87;78.89
65546;BME280;52177;55.968;37.498;2023-07-31T02:25:44;98954.72;;;13.88;78.75
65546;BME280;52177;55.968;37.498;2023-07-31T02:26:14;98952.03;;;13.88;78.90
65546;BME280;52177;55.968;37.498;2023-07-31T02:26:45;98953.66;;;13.89;78.85
65546;BME280;52177;55.968;37.498;2023-07-31T02:27:15;98951.81;;;13.90;78.93
65546;BME280;52177;55.968;37.498;2023-07-31T02:27:45;98946.44;;;13.90;79.09
65546;BME280;52177;55.968;37.498;2023-07-31T02:28:16;98945.63;;;13.89;78.80
65546;BME280;52177;55.968;37.498;2023-07-31T02:28:46;98944.59;;;13.90;78.76
65546;BME280;52177;55.968;37.498;2023-07-31T02:29:16;98946.25;;;13.91;78.76
65546;BME280;52177;55.968;37.498;2023-07-31T02:29:47;98948.72;;;13.93;78.88
65546;BME280;52177;55.968;37.498;2023-07-31T02:30:17;98947.88;;;13.92;78.64
65546;BME280;52177;55.968;37.498;2023-07-31T02:30:50;98949.53;;;13.93;78.61
65546;BME280;52177;55.968;37.498;2023-07-31T02:31:20;98953.22;;;13.92;78.69
65546;BME280;52177;55.968;37.498;2023-07-31T02:31:50;98943.34;;;13.93;78.77
65546;BME280;52177;55.968;37.498;2023-07-31T02:32:21;98944.97;;;13.94;78.67
65546;BME280;52177;55.968;37.498;2023-07-31T02:32:52;98944.97;;;13.94;78.78
65546;BME280;52177;55.968;37.498;2023-07-31T02:33:22;98942.31;;;13.94;78.78
65546;BME280;52177;55.968;37.498;2023-07-31T02:33:52;98935.91;;;13.95;78.84
65546;BME280;52177;55.968;37.498;2023-07-31T02:34:23;98950.50;;;13.99;78.86
65546;BME280;52177;55.968;37.498;2023-07-31T02:34:53;98942.47;;;13.99;79.03
65546;BME280;52177;55.968;37.498;2023-07-31T02:35:23;98947.63;;;14.01;79.03
65546;BME280;52177;55.968;37.498;2023-07-31T02:35:54;98945.31;;;14.04;79.13
65546;BME280;52177;55.968;37.498;2023-07-31T02:36:25;98940.78;;;14.05;79.07
65546;BME280;52177;55.968;37.498;2023-07-31T02:36:55;98940.34;;;14.08;78.93
65546;BME280;52177;55.968;37.498;2023-07-31T02:37:26;98945.50;;;14.09;78.93
65546;BME280;52177;55.968;37.498;2023-07-31T02:37:56;98948.56;;;14.13;79.06
65546;BME280;52177;55.968;37.498;2023-07-31T02:38:27;98946.47;;;14.15;78.93
65546;BME280;52177;55.968;37.498;2023-07-31T02:38:57;98949.75;;;14.17;78.91
65546;BME280;52177;55.968;37.498;2023-07-31T02:39:27;98947.69;;;14.19;78.83
65546;BME280;52177;55.968;37.498;2023-07-31T02:39:58;98948.31;;;14.21;78.83
65546;BME280;52177;55.968;37.498;2023-07-31T02:40:28;98947.25;;;14.22;78.92
65546;BME280;52177;55.968;37.498;2023-07-31T02:40:59;98950.53;;;14.24;78.83
65546;BME280;52177;55.968;37.498;2023-07-31T02:41:30;98952.16;;;14.25;78.91
65546;BME280;52177;55.968;37.498;2023-07-31T02:42:00;98951.13;;;14.26;78.71
65546;BME280;52177;55.968;37.498;2023-07-31T02:42:31;98947.19;;;14.29;78.77
65546;BME280;52177;55.968;37.498;2023-07-31T02:43:01;98948.81;;;14.30;78.62
65546;BME280;52177;55.968;37.498;2023-07-31T02:43:32;98950.69;;;14.29;78.61
65546;BME280;52177;55.968;37.498;2023-07-31T02:44:02;98945.34;;;14.29;78.66
65546;BME280;52177;55.968;37.498;2023-07-31T02:44:33;98955.00;;;14.30;78.63
65546;BME280;52177;55.968;37.498;2023-07-31T02:45:03;98959.34;;;14.31;78.66
65546;BME280;52177;55.968;37.498;2023-07-31T02:45:34;98949.44;;;14.32;78.77
65546;BME280;52177;55.968;37.498;2023-07-31T02:46:04;98948.16;;;14.34;78.76
65546;BME280;52177;55.968;37.498;2023-07-31T02:46:35;98944.69;;;14.34;78.72
65546;BME280;52177;55.968;37.498;2023-07-31T02:47:05;98952.50;;;14.35;78.72
65546;BME280;52177;55.968;37.498;2023-07-31T02:47:36;98947.16;;;14.35;78.66
65546;BME280;52177;55.968;37.498;2023-07-31T02:48:06;98950.63;;;14.36;78.89
65546;BME280;52177;55.968;37.498;2023-07-31T02:48:37;98947.75;;;14.38;78.70
65546;BME280;52177;55.968;37.498;2023-07-31T02:49:07;98950.19;;;14.39;78.82
65546;BME280;52177;55.968;37.498;2023-07-31T02:49:37;98948.94;;;14.42;78.77
65546;BME280;52177;55.968;37.498;2023-07-31T02:50:08;98948.94;;;14.42;78.77
65546;BME280;52177;55.968;37.498;2023-07-31T02:50:39;98947.91;;;14.43;78.80
65546;BME280;52177;55.968;37.498;2023-07-31T02:51:09;98952.00;;;14.45;78.78